To NAV CANADA Home Page Login to a new session Search on AWWS site Feedback and Comments Disclaimer Vers la page française équivalente Tips FAQ What's new on the site To the Forecasts and Observations / NOTAM section To "File a Flight Plan" website Publications and other links Update of the User's profile FIC Telephone Numbers My Weather Data Folder Route Weather Data Regional Weather Data Local Weather Data To the Forecasts and Observations / NOTAM section
Request Generated 12/10/2016 at 16:33:14 UTC . Weather information available at that time is displayed.

METAR/TAF

HOPE/BC    (show WxCam)

SPECI CYHE 101631Z AUTO 10010G16KT 2 1/4SM -SN BKN026 OVC037 M05/M07
A2993 RMK SLP138=
SPECI CYHE 101624Z AUTO 11012KT 5SM -SN BKN030 BKN037 OVC050 M04/M06
A2993 RMK SLP137=
METAR CYHE 101600Z AUTO 10011KT 9SM -SN OVC050 M05/M07 A2991 RMK
SLP133=
SPECI CYHE 101542Z AUTO 11012KT 9SM -SN OVC055 M04/M07 A2991 RMK
SLP132=
SPECI CYHE 101516Z AUTO 11013KT 9SM BKN050 OVC060 M05/M07 A2990 RMK
SLP129=
METAR CYHE 101500Z AUTO 09008KT 9SM -SN OVC048 M05/M06 A2990 RMK
SLP129=
METAR CYHE 101400Z AUTO 10009G15KT 8SM -SN SCT022 OVC044 M05/M06
A2990 RMK SLP130=

CYHE - No TAF is issued for this station

Your time UTC time
Weather data provided by Environment Canada and NAV CANADA